Time;durP1;ratioP1;P1;durP2;ratioP2;P2;SDS_P1;SDS_P2;PMS_P1;PMS_P2;Temp;Humidity;BMP_temperature;BMP_pressure;BME280_temperature;BME280_humidity;BME280_pressure;Samples;Min_cycle;Max_cycle;Signal;HPM_P1;HPM_P2
2023/01/11 00:00:37;;;;;;;3.13;2.10;;;10.20;57.50;;;;;;5066035;28;21141;-86
2023/01/11 00:03:06;;;;;;;4.60;1.97;;;10.40;57.70;;;;;;5058423;28;20951;-87
2023/01/11 00:05:38;;;;;;;3.83;1.60;;;10.40;57.00;;;;;;5079639;28;20435;-87
2023/01/11 00:08:05;;;;;;;4.13;1.50;;;10.50;57.70;;;;;;5079089;28;20462;-87
2023/01/11 00:10:32;;;;;;;3.50;1.80;;;10.50;57.60;;;;;;5066141;28;20459;-87
2023/01/11 00:12:59;;;;;;;5.87;2.30;;;10.50;57.40;;;;;;5064673;28;20452;-86
2023/01/11 00:15:28;;;;;;;3.17;1.73;;;10.40;57.00;;;;;;5065870;28;20489;-87
2023/01/11 00:17:56;;;;;;;3.67;1.57;;;10.30;57.40;;;;;;5065295;28;20451;-87
2023/01/11 00:20:23;;;;;;;4.33;2.00;;;10.30;57.80;;;;;;5042690;28;20762;-84
2023/01/11 00:22:50;;;;;;;5.37;1.97;;;10.10;58.30;;;;;;5048073;28;20583;-87
2023/01/11 00:25:17;;;;;;;3.50;1.90;;;10.20;58.70;;;;;;5065094;28;20427;-87
2023/01/11 00:27:46;;;;;;;4.90;1.90;;;10.10;58.90;;;;;;5094521;28;20820;-87
2023/01/11 00:30:13;;;;;;;4.20;2.00;;;10.10;58.70;;;;;;5065454;28;20592;-87
2023/01/11 00:32:41;;;;;;;5.40;1.80;;;10.30;58.40;;;;;;5080200;28;20451;-83
2023/01/11 00:35:09;;;;;;;4.40;2.47;;;10.30;58.60;;;;;;5081976;28;20462;-87
2023/01/11 00:37:36;;;;;;;5.67;2.50;;;10.10;59.10;;;;;;5070563;28;20468;-87
2023/01/11 00:40:03;;;;;;;6.53;2.83;;;10.00;59.80;;;;;;5062004;28;20478;-87
2023/01/11 00:48:01;;;;;;;4.20;2.03;;;10.40;59.60;;;;;;5072294;28;20451;-86
2023/01/11 00:50:30;;;;;;;4.13;2.30;;;10.30;58.90;;;;;;5088529;28;20478;-87
2023/01/11 00:52:58;;;;;;;6.80;3.73;;;10.40;59.10;;;;;;5073028;28;20454;-87
2023/01/11 00:55:25;;;;;;;6.67;3.10;;;10.50;59.00;;;;;;5085043;28;20547;-87
2023/01/11 00:57:53;;;;;;;6.00;3.37;;;10.60;58.90;;;;;;5085714;28;20947;-87
2023/01/11 01:00:21;;;;;;;4.13;2.50;;;10.70;58.50;;;;;;5052629;27;20839;-85
2023/01/11 01:02:49;;;;;;;8.37;2.30;;;10.80;58.80;;;;;;5084917;28;20439;-87
2023/01/11 01:05:18;;;;;;;4.03;3.63;;;10.80;58.40;;;;;;5068610;27;20446;-87
2023/01/11 01:07:45;;;;;;;2.73;1.87;;;10.80;58.00;;;;;;5050703;28;20636;-86
2023/01/11 01:10:15;;;;;;;4.30;1.90;;;10.80;58.10;;;;;;5050179;28;20466;-87
2023/01/11 01:15:26;;;;;;;7.03;2.60;;;10.40;58.70;;;;;;5049143;28;20462;-86
2023/01/11 01:17:54;;;;;;;2.43;2.23;;;10.30;58.70;;;;;;5103888;27;20470;-87
2023/01/11 01:20:23;;;;;;;5.90;2.83;;;9.80;60.90;;;;;;5065193;28;20474;-87
2023/01/11 01:22:51;;;;;;;2.67;1.90;;;10.00;60.70;;;;;;5085557;28;20486;-87
2023/01/11 01:25:18;;;;;;;5.30;2.50;;;10.00;60.20;;;;;;5046474;28;20474;-87
2023/01/11 01:27:45;;;;;;;3.00;1.70;;;9.90;60.80;;;;;;5061052;28;20458;-86
2023/01/11 01:30:12;;;;;;;1.97;1.60;;;9.50;62.20;;;;;;5067741;28;20545;-86
2023/01/11 01:32:39;;;;;;;2.60;1.83;;;9.50;63.10;;;;;;5069423;28;20915;-84
2023/01/11 01:35:07;;;;;;;6.90;1.90;;;9.70;62.40;;;;;;5085210;27;20493;-86
2023/01/11 01:37:35;;;;;;;6.43;2.77;;;10.00;60.90;;;;;;5059570;28;20668;-87
2023/01/11 01:40:02;;;;;;;4.10;2.40;;;10.30;60.30;;;;;;5066149;28;20464;-87
2023/01/11 01:42:30;;;;;;;7.03;2.10;;;10.50;59.70;;;;;;5084056;28;20827;-86
2023/01/11 01:45:02;;;;;;;5.30;2.00;;;10.60;59.00;;;;;;5067428;28;20446;-86
2023/01/11 01:47:44;;;;;;;4.93;1.67;;;10.50;59.30;;;;;;5083701;28;20447;-86
2023/01/11 01:50:15;;;;;;;10.33;2.20;;;10.60;59.00;;;;;;5079379;28;20469;-87
2023/01/11 01:52:48;;;;;;;5.10;1.80;;;10.60;58.60;;;;;;5084240;28;20458;-86
2023/01/11 01:55:22;;;;;;;2.10;1.50;;;10.20;59.50;;;;;;5051281;28;20466;-87
2023/01/11 01:57:51;;;;;;;3.37;1.70;;;10.30;59.70;;;;;;5051231;28;20548;-86
2023/01/11 02:00:19;;;;;;;3.13;1.77;;;10.40;59.80;;;;;;5067447;28;20478;-86
2023/01/11 02:02:46;;;;;;;3.60;1.57;;;10.60;59.50;;;;;;5064513;28;20451;-87
2023/01/11 02:05:15;;;;;;;3.03;1.63;;;10.70;59.20;;;;;;5102581;28;20455;-87
2023/01/11 02:07:44;;;;;;;5.97;1.80;;;10.60;59.30;;;;;;5084655;28;20442;-84
2023/01/11 02:10:14;;;;;;;3.47;1.90;;;10.70;59.10;;;;;;5067836;28;20467;-87
2023/01/11 02:12:46;;;;;;;2.73;1.43;;;10.80;59.30;;;;;;5051328;28;20531;-87
2023/01/11 02:15:14;;;;;;;9.43;2.00;;;10.80;59.10;;;;;;5067064;28;20554;-87
2023/01/11 02:17:42;;;;;;;3.77;1.50;;;10.40;59.00;;;;;;5084324;28;20920;-87
2023/01/11 02:20:38;;;;;;;1.97;1.70;;;10.40;59.50;;;;;;5050448;28;20474;-86
2023/01/11 02:23:51;;;;;;;1.90;1.63;;;10.60;59.40;;;;;;5014483;28;20445;-87
2023/01/11 02:26:46;;;;;;;10.10;3.00;;;10.70;59.20;;;;;;5067178;28;20667;-86
2023/01/11 02:29:28;;;;;;;4.63;1.93;;;10.70;59.30;;;;;;5084377;28;20493;-87
2023/01/11 02:32:05;;;;;;;3.50;1.70;;;10.50;59.30;;;;;;5084078;28;20443;-87
2023/01/11 02:34:40;;;;;;;2.87;1.50;;;10.70;59.40;;;;;;5066159;28;20466;-87
2023/01/11 02:37:19;;;;;;;1.97;1.33;;;10.60;59.60;;;;;;5076474;28;21172;-87
2023/01/11 02:40:00;;;;;;;5.40;1.30;;;10.70;59.00;;;;;;5075437;28;20459;-87
2023/01/11 02:45:34;;;;;;;2.63;1.50;;;10.50;59.50;;;;;;5064353;28;20803;-88
2023/01/11 02:48:05;;;;;;;4.23;1.30;;;10.60;59.80;;;;;;5049378;28;20828;-87
2023/01/11 02:50:38;;;;;;;3.10;1.40;;;10.80;59.00;;;;;;5066726;28;20498;-87
2023/01/11 02:53:09;;;;;;;5.90;2.07;;;10.80;58.80;;;;;;5054378;28;20439;-86
2023/01/11 02:55:40;;;;;;;7.20;1.63;;;10.90;58.20;;;;;;5066805;28;20462;-87
2023/01/11 02:58:11;;;;;;;4.70;1.23;;;11.00;58.10;;;;;;5098985;28;20443;-85
2023/01/11 03:00:41;;;;;;;2.80;1.53;;;10.90;58.40;;;;;;5088431;28;20454;-87
2023/01/11 03:03:12;;;;;;;5.17;1.97;;;10.90;58.30;;;;;;5061430;28;20431;-87
2023/01/11 03:05:44;;;;;;;3.20;1.50;;;10.60;58.10;;;;;;5050032;28;20522;-87
2023/01/11 03:08:32;;;;;;;2.40;1.50;;;10.60;59.10;;;;;;5075570;28;20442;-87
2023/01/11 03:11:04;;;;;;;1.83;1.50;;;10.50;59.10;;;;;;5048787;28;20814;-87
2023/01/11 03:13:49;;;;;;;7.40;1.27;;;10.50;59.40;;;;;;5044973;28;20442;-87
2023/01/11 03:16:24;;;;;;;3.90;1.30;;;10.50;59.20;;;;;;5058538;28;20878;-86
2023/01/11 03:19:00;;;;;;;2.23;1.30;;;10.60;59.70;;;;;;5082883;28;20470;-87
2023/01/11 03:21:38;;;;;;;3.83;1.47;;;10.70;59.20;;;;;;5083006;27;20461;-87
2023/01/11 03:24:15;;;;;;;4.20;1.67;;;10.60;59.10;;;;;;5065629;28;20579;-85
2023/01/11 03:26:53;;;;;;;3.43;1.40;;;10.70;59.50;;;;;;5084440;28;20963;-87
2023/01/11 03:29:28;;;;;;;2.27;1.47;;;10.70;59.00;;;;;;5065594;28;20470;-87
2023/01/11 03:32:07;;;;;;;2.43;1.30;;;10.40;59.50;;;;;;5053841;28;20454;-87
2023/01/11 03:34:40;;;;;;;2.20;1.40;;;10.50;59.50;;;;;;5086228;28;20455;-86
2023/01/11 03:37:12;;;;;;;4.23;1.47;;;10.60;59.50;;;;;;5048776;27;20956;-86
2023/01/11 03:39:45;;;;;;;1.40;1.30;;;10.30;60.20;;;;;;5051444;28;20477;-86
2023/01/11 03:42:15;;;;;;;2.50;1.47;;;10.40;59.80;;;;;;5084735;28;20447;-87
2023/01/11 03:44:45;;;;;;;1.40;1.10;;;10.60;60.00;;;;;;5066394;28;21081;-87
2023/01/11 03:47:18;;;;;;;1.20;1.10;;;10.80;59.30;;;;;;5084020;28;20916;-87
2023/01/11 03:49:49;;;;;;;1.50;0.90;;;10.50;59.70;;;;;;5100770;28;20465;-84
2023/01/11 03:52:20;;;;;;;1.47;1.37;;;10.40;60.90;;;;;;5057259;28;20956;-87
2023/01/11 03:54:48;;;;;;;4.67;1.80;;;10.60;60.10;;;;;;5065455;28;20463;-86
2023/01/11 03:57:19;;;;;;;1.67;1.10;;;10.80;59.80;;;;;;5059439;28;20462;-87
2023/01/11 03:59:47;;;;;;;4.70;1.40;;;10.80;59.90;;;;;;5065386;28;20478;-85
2023/01/11 04:02:22;;;;;;;3.20;1.30;;;10.80;60.00;;;;;;5083574;28;21047;-87
2023/01/11 04:04:49;;;;;;;3.00;1.83;;;10.90;59.70;;;;;;5083937;28;20547;-88
2023/01/11 04:07:17;;;;;;;3.00;1.20;;;11.00;59.90;;;;;;5066902;28;20431;-86
2023/01/11 04:09:44;;;;;;;2.53;1.60;;;11.00;59.60;;;;;;5066050;28;20981;-86
2023/01/11 04:12:12;;;;;;;1.93;1.00;;;10.80;60.30;;;;;;5057635;28;20446;-85
2023/01/11 04:14:39;;;;;;;10.43;1.40;;;11.00;60.20;;;;;;5081301;28;20546;-86
2023/01/11 04:17:06;;;;;;;3.10;1.20;;;10.90;60.10;;;;;;5065207;28;20477;-86
2023/01/11 04:19:34;;;;;;;2.90;1.17;;;11.10;59.80;;;;;;5071081;28;20463;-86
2023/01/11 04:22:01;;;;;;;2.43;1.17;;;11.00;60.20;;;;;;5086538;28;20439;-87
2023/01/11 04:24:28;;;;;;;3.00;1.30;;;10.90;60.20;;;;;;5077026;28;20446;-87
2023/01/11 04:26:55;;;;;;;1.40;1.20;;;11.00;60.40;;;;;;5084969;28;20944;-87
2023/01/11 04:29:22;;;;;;;4.43;1.47;;;10.90;60.50;;;;;;5071038;27;20477;-88
2023/01/11 04:31:49;;;;;;;1.10;1.00;;;10.90;61.20;;;;;;5080700;28;21032;-86
2023/01/11 04:34:16;;;;;;;1.67;1.50;;;11.10;60.60;;;;;;5071467;28;20453;-87
2023/01/11 04:36:44;;;;;;;5.47;2.30;;;11.10;60.60;;;;;;5070541;28;20470;-87
2023/01/11 04:39:11;;;;;;;5.07;2.10;;;11.00;60.80;;;;;;5084567;28;20998;-86
2023/01/11 04:44:23;;;;;;;3.47;2.00;;;11.00;61.10;;;;;;5070000;27;20801;-86
2023/01/11 04:46:51;;;;;;;8.40;3.00;;;11.20;60.90;;;;;;5083603;28;20480;-87
2023/01/11 04:49:18;;;;;;;3.20;2.53;;;11.20;60.70;;;;;;5082370;28;20462;-87
2023/01/11 04:51:46;;;;;;;3.17;1.70;;;11.40;60.30;;;;;;5060739;28;20459;-87
2023/01/11 04:54:13;;;;;;;3.43;2.23;;;11.00;61.60;;;;;;5075504;28;20834;-87
2023/01/11 04:56:40;;;;;;;2.80;2.07;;;11.20;61.40;;;;;;5079341;28;20466;-85
2023/01/11 04:59:07;;;;;;;3.30;2.07;;;11.10;62.10;;;;;;5082881;28;20478;-87
2023/01/11 05:01:34;;;;;;;2.30;1.30;;;11.30;60.90;;;;;;5105528;28;20876;-87
2023/01/11 05:04:01;;;;;;;4.73;1.90;;;11.40;61.00;;;;;;5069008;28;20490;-85
2023/01/11 05:06:28;;;;;;;4.90;1.83;;;11.40;60.80;;;;;;5085308;28;20439;-87
2023/01/11 05:08:56;;;;;;;2.07;1.50;;;11.40;60.60;;;;;;5045060;28;20513;-86
2023/01/11 05:11:23;;;;;;;1.83;1.50;;;11.40;61.00;;;;;;5069031;27;20457;-87
2023/01/11 05:13:50;;;;;;;2.13;1.60;;;11.40;61.00;;;;;;5082748;28;20841;-85
2023/01/11 05:16:20;;;;;;;1.70;1.20;;;11.40;60.90;;;;;;5068636;28;20497;-87
2023/01/11 05:18:48;;;;;;;3.40;2.60;;;11.50;61.00;;;;;;5067619;28;20486;-87
2023/01/11 05:21:17;;;;;;;2.67;2.47;;;11.40;61.00;;;;;;5062002;28;20454;-87
2023/01/11 05:23:45;;;;;;;2.80;1.83;;;11.50;61.10;;;;;;5061421;28;20450;-84
2023/01/11 05:26:16;;;;;;;21.20;12.40;;;11.60;60.50;;;;;;5069298;28;20471;-86
2023/01/11 05:28:43;;;;;;;21.20;11.07;;;11.60;61.20;;;;;;5059315;28;20463;-86
2023/01/11 05:31:10;;;;;;;2.97;2.50;;;11.70;60.60;;;;;;5065068;28;20534;-86
2023/01/11 05:33:37;;;;;;;9.27;4.53;;;11.70;61.00;;;;;;5080488;28;20431;-86
2023/01/11 05:36:07;;;;;;;3.47;1.60;;;11.70;60.80;;;;;;5049943;28;20648;-86
2023/01/11 05:38:34;;;;;;;3.80;1.80;;;11.70;61.00;;;;;;5069035;27;21286;-86
2023/01/11 05:41:02;;;;;;;1.93;1.53;;;11.80;60.90;;;;;;5103126;28;20450;-86
2023/01/11 05:43:31;;;;;;;2.17;1.97;;;11.50;61.90;;;;;;5082679;28;20943;-85
2023/01/11 05:45:58;;;;;;;3.13;2.83;;;11.80;61.20;;;;;;5064033;28;20730;-86
2023/01/11 05:48:25;;;;;;;5.43;3.20;;;11.80;61.00;;;;;;5051168;27;20455;-85
2023/01/11 05:50:53;;;;;;;5.40;3.63;;;12.00;60.50;;;;;;5064927;28;20469;-86
2023/01/11 05:53:21;;;;;;;11.13;7.17;;;11.80;60.60;;;;;;5080058;28;20443;-84
2023/01/11 05:55:53;;;;;;;3.90;3.07;;;11.70;61.50;;;;;;5050834;28;20942;-85
2023/01/11 05:58:20;;;;;;;10.50;7.50;;;11.60;62.40;;;;;;5066056;28;20982;-86
2023/01/11 06:00:49;;;;;;;3.97;2.30;;;11.50;62.80;;;;;;5046724;28;20450;-85
2023/01/11 06:03:16;;;;;;;3.13;2.37;;;11.50;63.60;;;;;;5065889;28;20448;-86
2023/01/11 06:05:43;;;;;;;1.63;1.53;;;11.50;63.30;;;;;;5067544;28;20812;-85
2023/01/11 06:08:10;;;;;;;1.90;1.40;;;11.30;63.90;;;;;;5078505;28;20450;-86
2023/01/11 06:10:37;;;;;;;1.67;1.50;;;11.20;64.50;;;;;;5103269;28;20471;-86
2023/01/11 06:15:49;;;;;;;1.40;1.30;;;11.50;63.80;;;;;;5074946;28;20517;-86
2023/01/11 06:18:16;;;;;;;1.83;1.50;;;11.60;63.60;;;;;;5048560;27;20456;-85
2023/01/11 06:20:43;;;;;;;5.83;2.10;;;11.40;64.30;;;;;;5045920;28;20983;-86
2023/01/11 06:23:10;;;;;;;3.20;1.83;;;11.40;63.80;;;;;;5067745;28;20952;-86
2023/01/11 06:25:37;;;;;;;2.93;1.87;;;11.30;64.50;;;;;;5100141;27;20432;-86
2023/01/11 06:28:04;;;;;;;2.40;2.10;;;11.20;65.50;;;;;;5082740;28;20451;-85
2023/01/11 06:30:31;;;;;;;1.47;1.33;;;11.30;64.60;;;;;;5067396;28;20474;-86
2023/01/11 06:33:04;;;;;;;3.70;1.50;;;11.50;64.00;;;;;;5082578;28;20439;-86
2023/01/11 06:35:31;;;;;;;1.67;1.40;;;11.40;64.20;;;;;;5068591;28;20468;-86
2023/01/11 06:37:58;;;;;;;3.27;1.97;;;11.30;64.80;;;;;;5082905;28;20443;-87
2023/01/11 06:40:25;;;;;;;1.93;1.30;;;11.40;64.80;;;;;;5083427;27;20987;-86
2023/01/11 06:42:52;;;;;;;3.20;1.70;;;11.60;64.10;;;;;;5071585;28;20443;-86
2023/01/11 06:45:19;;;;;;;1.40;1.30;;;11.80;63.60;;;;;;5083251;28;20720;-86
2023/01/11 06:47:46;;;;;;;2.03;1.30;;;11.70;64.00;;;;;;5070477;28;20511;-86
2023/01/11 06:50:15;;;;;;;2.23;1.60;;;11.80;63.00;;;;;;5081307;28;20481;-86
2023/01/11 06:52:42;;;;;;;1.30;1.20;;;11.70;63.60;;;;;;5077121;28;20451;-85
2023/01/11 06:55:09;;;;;;;1.27;1.17;;;11.70;63.50;;;;;;5077656;28;21140;-84
2023/01/11 06:57:36;;;;;;;3.83;1.50;;;11.80;63.70;;;;;;5084321;28;20496;-84
2023/01/11 07:00:04;;;;;;;3.47;1.30;;;11.90;63.70;;;;;;5068446;28;20560;-83
2023/01/11 07:02:31;;;;;;;1.67;1.30;;;11.90;63.50;;;;;;5065428;27;20554;-83
2023/01/11 07:04:58;;;;;;;2.60;1.27;;;11.90;63.40;;;;;;5068542;28;20439;-86
2023/01/11 07:07:26;;;;;;;2.00;1.80;;;11.80;63.80;;;;;;5083571;27;20439;-84
2023/01/11 07:09:53;;;;;;;5.00;4.53;;;11.70;64.50;;;;;;5063087;28;20478;-86
2023/01/11 07:12:20;;;;;;;1.70;1.57;;;11.90;64.20;;;;;;5057129;28;20524;-83
2023/01/11 07:14:47;;;;;;;1.87;1.60;;;12.00;63.80;;;;;;5053498;28;20564;-87
2023/01/11 07:17:14;;;;;;;1.50;1.20;;;12.00;63.80;;;;;;5065725;28;20477;-87
2023/01/11 07:19:41;;;;;;;4.10;2.57;;;12.00;63.70;;;;;;5050210;28;20975;-85
2023/01/11 07:22:08;;;;;;;2.90;1.80;;;12.00;64.00;;;;;;5080395;28;20447;-85
2023/01/11 07:24:37;;;;;;;2.20;1.43;;;12.20;63.60;;;;;;5065741;28;20501;-86
2023/01/11 07:27:04;;;;;;;1.07;0.97;;;11.80;64.70;;;;;;5050495;28;20450;-85
2023/01/11 07:29:31;;;;;;;2.33;1.50;;;11.50;66.30;;;;;;5066551;28;20475;-86
2023/01/11 07:31:58;;;;;;;1.40;1.10;;;11.60;66.00;;;;;;5082519;28;20439;-85
2023/01/11 07:34:25;;;;;;;1.53;1.40;;;11.70;66.00;;;;;;5051472;28;20443;-85
2023/01/11 07:36:52;;;;;;;2.47;1.17;;;11.80;65.30;;;;;;5085921;28;20539;-87
2023/01/11 07:39:19;;;;;;;3.80;1.30;;;11.40;67.00;;;;;;5082923;28;20463;-87
2023/01/11 07:44:32;;;;;;;2.47;2.17;;;11.60;66.60;;;;;;5066506;28;20515;-87
2023/01/11 07:46:59;;;;;;;4.10;1.60;;;12.00;65.30;;;;;;5069706;28;20447;-85
2023/01/11 07:49:26;;;;;;;2.47;1.63;;;12.10;64.50;;;;;;5051707;28;20481;-85
2023/01/11 07:51:53;;;;;;;1.97;1.43;;;12.00;64.70;;;;;;5052907;28;20504;-86
2023/01/11 07:54:20;;;;;;;2.27;1.70;;;11.90;64.80;;;;;;5070009;28;20450;-85
2023/01/11 07:56:48;;;;;;;2.90;1.30;;;12.10;65.00;;;;;;5069508;28;20447;-87
2023/01/11 07:59:15;;;;;;;2.53;1.30;;;11.90;65.30;;;;;;5065876;28;20586;-85
2023/01/11 08:01:42;;;;;;;2.80;1.30;;;11.70;66.50;;;;;;5101935;28;20445;-86
2023/01/11 08:04:11;;;;;;;1.90;1.13;;;12.00;65.40;;;;;;5066730;28;20488;-85
2023/01/11 08:06:38;;;;;;;1.10;1.00;;;12.00;65.50;;;;;;5051386;28;20719;-87
2023/01/11 08:09:06;;;;;;;3.40;1.40;;;12.10;65.60;;;;;;5058066;28;20462;-85
2023/01/11 08:17:03;;;;;;;1.70;1.30;;;12.10;65.00;;;;;;5061209;28;20478;-86
2023/01/11 08:19:34;;;;;;;1.40;1.00;;;12.10;64.90;;;;;;5082449;28;20826;-87
2023/01/11 08:22:01;;;;;;;1.77;1.10;;;12.30;64.80;;;;;;5099328;28;20504;-87
2023/01/11 08:24:28;;;;;;;5.33;1.00;;;12.40;64.20;;;;;;5065083;28;20504;-86
2023/01/11 08:26:55;;;;;;;1.20;1.10;;;12.50;64.10;;;;;;5063772;28;20451;-87
2023/01/11 08:29:25;;;;;;;1.93;1.30;;;12.70;63.50;;;;;;5064538;28;20553;-87
2023/01/11 08:31:52;;;;;;;13.13;6.60;;;12.70;63.00;;;;;;5067289;28;20451;-86
2023/01/11 08:34:19;;;;;;;11.30;5.57;;;12.50;63.70;;;;;;5062964;28;20446;-85
2023/01/11 08:36:46;;;;;;;10.67;5.60;;;12.50;64.20;;;;;;5084373;28;20471;-86
2023/01/11 08:39:13;;;;;;;3.47;1.80;;;12.70;64.00;;;;;;5041120;28;20502;-84
2023/01/11 08:41:40;;;;;;;3.00;1.93;;;12.80;64.00;;;;;;5099468;28;20522;-85
2023/01/11 08:44:08;;;;;;;1.40;1.23;;;12.80;64.50;;;;;;5063908;28;20877;-85
2023/01/11 08:46:36;;;;;;;1.60;1.50;;;12.70;64.80;;;;;;5057674;28;20967;-86
2023/01/11 08:49:09;;;;;;;1.73;1.63;;;12.70;65.20;;;;;;5098374;28;20463;-86
2023/01/11 08:51:37;;;;;;;2.37;1.77;;;12.80;65.20;;;;;;5070797;28;20454;-87
2023/01/11 08:54:05;;;;;;;2.60;1.33;;;12.80;64.90;;;;;;5065759;28;20450;-87
2023/01/11 08:56:32;;;;;;;1.63;1.50;;;12.80;64.80;;;;;;5082695;28;20500;-88
2023/01/11 08:59:00;;;;;;;2.30;1.30;;;12.90;64.70;;;;;;5045322;28;20520;-87
2023/01/11 09:01:27;;;;;;;2.03;1.83;;;12.90;64.60;;;;;;5070122;28;21044;-87
2023/01/11 09:03:55;;;;;;;2.57;2.00;;;13.00;65.00;;;;;;5067077;28;20458;-86
2023/01/11 09:06:22;;;;;;;1.83;1.73;;;12.90;65.40;;;;;;5052688;28;20955;-89
2023/01/11 09:08:50;;;;;;;3.80;1.67;;;13.00;65.00;;;;;;5087140;28;20811;-87
2023/01/11 09:14:02;;;;;;;1.47;0.90;;;12.90;65.50;;;;;;5075581;28;20544;-86
2023/01/11 09:16:28;;;;;;;1.57;1.47;;;12.80;65.50;;;;;;5063324;27;20587;-86
2023/01/11 09:18:57;;;;;;;1.80;1.70;;;12.90;65.30;;;;;;5082602;28;20455;-87
2023/01/11 09:21:24;;;;;;;1.80;1.63;;;13.00;65.40;;;;;;5068593;28;20573;-87
2023/01/11 09:23:51;;;;;;;2.80;1.00;;;12.90;65.80;;;;;;5100475;28;20832;-88
2023/01/11 09:26:18;;;;;;;2.00;1.30;;;12.90;66.40;;;;;;5050529;28;20491;-88
2023/01/11 09:28:45;;;;;;;1.87;1.67;;;12.90;66.20;;;;;;5067318;27;20926;-86
2023/01/11 09:31:12;;;;;;;2.13;1.93;;;12.90;66.60;;;;;;5082542;28;20956;-87
2023/01/11 09:33:38;;;;;;;1.77;1.27;;;13.10;66.10;;;;;;5083839;27;21014;-87
2023/01/11 09:36:07;;;;;;;1.20;1.10;;;12.90;66.40;;;;;;5065040;28;20525;-88
2023/01/11 09:38:36;;;;;;;1.87;1.60;;;13.10;66.00;;;;;;5049664;28;20848;-87
2023/01/11 09:41:20;;;;;;;2.30;2.00;;;13.10;65.60;;;;;;5077941;28;20474;-88
2023/01/11 09:43:55;;;;;;;1.70;1.10;;;13.20;65.70;;;;;;5087716;28;20445;-88
2023/01/11 09:46:24;;;;;;;2.77;1.70;;;12.60;67.60;;;;;;5070465;27;20538;-87
2023/01/11 09:48:57;;;;;;;2.60;2.40;;;12.60;68.20;;;;;;5053696;28;21015;-87
2023/01/11 09:51:33;;;;;;;4.13;2.70;;;12.80;68.00;;;;;;5079210;27;20462;-84
2023/01/11 09:54:04;;;;;;;3.90;2.10;;;12.50;69.00;;;;;;5068435;28;20427;-86
2023/01/11 09:56:41;;;;;;;1.40;1.30;;;12.70;68.60;;;;;;5076887;27;20448;-87
2023/01/11 09:59:19;;;;;;;1.27;1.03;;;13.00;67.70;;;;;;5048468;28;20472;-87
2023/01/11 10:01:54;;;;;;;2.10;1.00;;;13.00;67.50;;;;;;5082995;27;20450;-87
2023/01/11 10:04:50;;;;;;;2.40;1.47;;;12.90;67.60;;;;;;5065827;28;20503;-86
2023/01/11 10:07:52;;;;;;;1.53;1.43;;;12.90;67.90;;;;;;5067844;28;20435;-87
2023/01/11 10:10:30;;;;;;;1.10;1.00;;;13.00;67.90;;;;;;5097836;27;20468;-86
2023/01/11 10:13:05;;;;;;;1.23;1.13;;;13.00;67.70;;;;;;5083833;28;20529;-85
2023/01/11 10:15:38;;;;;;;3.63;1.53;;;13.20;67.50;;;;;;5097231;27;20571;-85
2023/01/11 10:18:21;;;;;;;1.50;1.40;;;13.30;66.90;;;;;;5082820;28;20489;-87
2023/01/11 10:20:51;;;;;;;2.97;1.97;;;13.50;66.80;;;;;;5103233;27;20511;-86
2023/01/11 10:23:26;;;;;;;2.30;2.10;;;13.30;66.70;;;;;;5066933;28;20472;-87
2023/01/11 10:25:59;;;;;;;4.20;1.40;;;13.40;66.80;;;;;;5067871;28;20438;-87
2023/01/11 10:28:34;;;;;;;1.90;1.67;;;13.20;67.20;;;;;;5071160;28;20480;-86
2023/01/11 10:31:25;;;;;;;9.67;3.93;;;13.10;67.80;;;;;;5051983;28;20849;-85
2023/01/11 10:34:12;;;;;;;11.80;5.70;;;13.00;68.10;;;;;;5067573;28;20454;-86
2023/01/11 10:37:09;;;;;;;1.83;1.30;;;13.20;68.50;;;;;;5057684;28;20459;-86
2023/01/11 10:40:05;;;;;;;2.20;1.60;;;13.10;68.60;;;;;;5086660;28;20545;-86
2023/01/11 10:42:42;;;;;;;1.63;1.20;;;13.20;68.10;;;;;;5069117;27;20542;-88
2023/01/11 10:45:16;;;;;;;2.20;1.30;;;13.30;67.90;;;;;;5050644;28;20927;-87
2023/01/11 10:47:50;;;;;;;3.80;3.30;;;13.10;68.80;;;;;;5067063;28;20447;-87
2023/01/11 10:50:24;;;;;;;1.77;1.00;;;13.30;68.60;;;;;;5081978;28;20481;-87
2023/01/11 10:52:55;;;;;;;1.77;1.47;;;13.30;67.80;;;;;;5069172;28;20435;-86
2023/01/11 10:55:30;;;;;;;2.77;2.57;;;13.30;68.50;;;;;;5065667;28;20487;-87
2023/01/11 10:58:10;;;;;;;2.73;1.30;;;13.40;68.10;;;;;;5058991;28;20460;-87
2023/01/11 11:00:46;;;;;;;1.47;1.10;;;13.30;68.90;;;;;;5067966;28;20467;-87
2023/01/11 11:03:44;;;;;;;1.13;1.03;;;13.40;68.60;;;;;;5076201;28;20523;-86
2023/01/11 11:06:20;;;;;;;1.07;0.97;;;13.50;68.30;;;;;;5067398;28;20515;-88
2023/01/11 11:08:55;;;;;;;2.80;1.30;;;13.30;68.80;;;;;;5084769;27;20472;-87
2023/01/11 11:11:31;;;;;;;3.10;1.07;;;13.50;68.70;;;;;;5069153;28;20445;-87
2023/01/11 11:14:03;;;;;;;2.20;1.70;;;13.50;68.10;;;;;;5052630;28;20557;-85
2023/01/11 11:16:47;;;;;;;2.13;1.60;;;13.50;68.40;;;;;;5068443;28;20966;-87
2023/01/11 11:19:19;;;;;;;4.17;1.90;;;13.60;68.30;;;;;;5071824;28;21215;-88
2023/01/11 11:21:47;;;;;;;2.40;1.60;;;13.60;69.20;;;;;;5050956;28;20451;-87
2023/01/11 11:24:21;;;;;;;11.87;5.00;;;13.60;68.40;;;;;;5064669;28;20446;-88
2023/01/11 11:26:56;;;;;;;6.20;2.50;;;13.70;68.40;;;;;;5086714;28;20455;-86
2023/01/11 11:29:29;;;;;;;4.80;2.13;;;13.70;68.30;;;;;;5052609;28;20833;-87
2023/01/11 11:31:58;;;;;;;2.33;1.27;;;13.80;68.10;;;;;;5099928;28;20432;-86
2023/01/11 11:34:26;;;;;;;1.00;0.90;;;13.80;68.10;;;;;;5081963;28;21072;-85
2023/01/11 11:36:54;;;;;;;5.03;2.80;;;14.00;67.70;;;;;;5069851;28;20447;-86
2023/01/11 11:39:23;;;;;;;1.30;0.93;;;13.80;68.20;;;;;;5063480;28;20462;-87
2023/01/11 11:41:55;;;;;;;7.53;3.80;;;13.80;68.00;;;;;;5081771;28;20434;-86
2023/01/11 11:44:24;;;;;;;9.60;5.27;;;13.70;68.60;;;;;;5076640;28;20447;-85
2023/01/11 11:46:59;;;;;;;1.30;1.17;;;13.70;68.40;;;;;;5062454;28;20458;-85
2023/01/11 11:49:27;;;;;;;2.00;1.60;;;13.40;68.50;;;;;;5051426;28;20492;-85
2023/01/11 11:51:55;;;;;;;9.90;3.73;;;13.40;69.50;;;;;;5099133;28;20616;-88
2023/01/11 11:54:26;;;;;;;11.00;4.93;;;13.40;69.70;;;;;;5066020;28;20531;-86
2023/01/11 11:56:56;;;;;;;3.70;2.40;;;13.50;69.60;;;;;;5050838;28;20488;-88
2023/01/11 11:59:28;;;;;;;2.50;1.90;;;13.60;69.60;;;;;;5046756;28;20466;-87
2023/01/11 12:01:58;;;;;;;3.00;1.70;;;13.70;69.10;;;;;;5067490;28;20454;-88
2023/01/11 12:04:33;;;;;;;0.80;0.80;;;13.90;68.30;;;;;;5064712;28;20458;-87
2023/01/11 12:07:13;;;;;;;1.83;1.73;;;13.90;68.30;;;;;;5078023;28;20450;-86
2023/01/11 12:09:44;;;;;;;1.70;1.60;;;13.80;68.80;;;;;;5082149;28;20561;-86
2023/01/11 12:12:18;;;;;;;2.27;2.17;;;13.60;69.20;;;;;;5082373;28;20447;-86
2023/01/11 12:15:06;;;;;;;10.87;7.83;;;13.60;69.70;;;;;;5066087;28;20434;-87
2023/01/11 12:17:33;;;;;;;3.83;3.13;;;13.80;69.40;;;;;;5082666;28;20467;-88
2023/01/11 12:20:00;;;;;;;2.20;2.00;;;13.80;69.20;;;;;;5055390;28;20968;-86
2023/01/11 12:22:29;;;;;;;4.20;3.80;;;13.70;70.50;;;;;;5061717;28;20467;-87
2023/01/11 12:25:20;;;;;;;2.50;2.30;;;13.60;70.40;;;;;;5097418;28;20482;-87
2023/01/11 12:27:59;;;;;;;1.40;1.30;;;13.70;70.50;;;;;;5055850;28;20537;-88
2023/01/11 12:30:33;;;;;;;1.20;1.10;;;13.70;70.80;;;;;;5054243;28;20479;-86
2023/01/11 12:33:24;;;;;;;1.27;1.17;;;13.50;70.90;;;;;;5061774;28;20467;-86
2023/01/11 12:35:58;;;;;;;1.70;1.60;;;13.70;70.70;;;;;;5102699;28;20604;-88
2023/01/11 12:38:43;;;;;;;2.17;1.20;;;13.60;70.80;;;;;;5102927;27;20482;-87
2023/01/11 12:41:45;;;;;;;2.40;1.70;;;13.40;71.00;;;;;;5049048;28;21198;-86
2023/01/11 12:44:20;;;;;;;1.60;1.40;;;13.50;71.50;;;;;;5083642;28;20454;-85
2023/01/11 12:47:02;;;;;;;1.40;1.30;;;13.80;70.90;;;;;;5049786;28;20465;-86
2023/01/11 12:49:39;;;;;;;1.70;1.60;;;13.80;70.70;;;;;;5083703;28;20462;-87
2023/01/11 12:52:38;;;;;;;13.43;8.90;;;13.80;71.00;;;;;;5048413;28;20451;-86
2023/01/11 12:55:19;;;;;;;10.73;6.93;;;13.80;70.80;;;;;;5064882;28;20458;-86
2023/01/11 12:57:59;;;;;;;4.23;3.83;;;13.80;71.10;;;;;;5084929;27;20553;-86
2023/01/11 13:00:42;;;;;;;2.30;1.97;;;13.90;71.30;;;;;;5080433;28;20832;-87
2023/01/11 13:03:45;;;;;;;1.80;1.00;;;14.00;70.50;;;;;;5067197;28;20926;-85
2023/01/11 13:06:16;;;;;;;1.50;1.07;;;13.70;70.40;;;;;;5079553;28;20431;-86
2023/01/11 13:08:55;;;;;;;1.00;1.00;;;13.80;70.90;;;;;;5085913;28;20519;-85
2023/01/11 13:11:37;;;;;;;0.90;0.87;;;13.90;71.30;;;;;;5083397;28;20483;-85
2023/01/11 13:14:33;;;;;;;1.00;0.90;;;14.10;70.60;;;;;;5053868;28;20441;-87
2023/01/11 13:17:13;;;;;;;1.00;0.90;;;14.10;70.30;;;;;;5086697;28;20462;-85
2023/01/11 13:19:46;;;;;;;1.50;1.00;;;14.20;69.60;;;;;;5051893;28;20517;-87
2023/01/11 13:22:18;;;;;;;1.20;1.00;;;14.20;70.10;;;;;;5069696;28;20435;-86
2023/01/11 13:24:49;;;;;;;1.70;1.00;;;14.50;69.50;;;;;;5079906;28;20486;-86
2023/01/11 13:27:21;;;;;;;1.33;0.97;;;14.50;68.40;;;;;;5102139;27;20447;-86
2023/01/11 13:29:50;;;;;;;1.57;1.43;;;14.50;68.60;;;;;;5068065;28;20465;-86
2023/01/11 13:32:23;;;;;;;1.10;0.97;;;14.60;68.10;;;;;;5062491;28;20446;-87
2023/01/11 13:34:54;;;;;;;1.40;1.30;;;14.70;68.00;;;;;;5086345;27;20450;-87